Time;durP1;ratioP1;P1;durP2;ratioP2;P2;SDS_P1;SDS_P2;PMS_P1;PMS_P2;Temp;Humidity;BMP_temperature;BMP_pressure;BME280_temperature;BME280_humidity;BME280_pressure;Samples;Min_cycle;Max_cycle;Signal;HPM_P1;HPM_P2
2022/05/31 00:02:23;;;;;;;11.38;6.95;;;;;;;12.54;54.36;101482.91;5149022;28;20497;-42
2022/05/31 00:04:56;;;;;;;10.70;7.15;;;;;;;12.51;54.28;101482.34;5148775;28;20907;-44
2022/05/31 00:07:28;;;;;;;15.38;7.13;;;;;;;12.45;54.50;101474.00;5150575;28;20432;-48
2022/05/31 00:10:00;;;;;;;9.05;7.07;;;;;;;12.31;54.56;101461.25;5150914;28;21104;-45
2022/05/31 00:12:33;;;;;;;13.68;7.60;;;;;;;12.42;54.76;101478.78;5130087;28;20905;-42
2022/05/31 00:15:08;;;;;;;10.43;7.05;;;;;;;12.39;54.65;101476.41;5150792;28;20490;-41
2022/05/31 00:17:42;;;;;;;13.32;7.18;;;;;;;12.31;54.60;101471.84;5150988;28;20506;-42
2022/05/31 00:20:16;;;;;;;11.00;7.13;;;;;;;12.27;55.18;101457.22;5149415;28;20849;-43
2022/05/31 00:22:49;;;;;;;10.13;6.77;;;;;;;12.34;54.92;101468.91;5147881;28;20930;-42
2022/05/31 00:25:22;;;;;;;11.13;7.13;;;;;;;12.33;55.06;101471.72;5151867;28;20425;-42
2022/05/31 00:27:55;;;;;;;11.02;6.53;;;;;;;12.31;55.11;101463.88;5151457;28;20505;-42
2022/05/31 00:30:27;;;;;;;8.23;6.20;;;;;;;12.30;55.12;101470.19;5151897;28;20426;-41
2022/05/31 00:33:02;;;;;;;9.13;6.80;;;;;;;12.27;55.35;101470.47;5149814;28;20426;-42
2022/05/31 00:35:39;;;;;;;9.73;6.55;;;;;;;12.22;55.44;101464.75;5156230;28;20446;-41
2022/05/31 00:38:12;;;;;;;9.02;6.90;;;;;;;12.23;55.49;101463.78;5157210;28;20430;-42
2022/05/31 00:40:45;;;;;;;13.80;7.18;;;;;;;12.17;55.41;101461.69;5148217;28;20756;-43
2022/05/31 00:43:22;;;;;;;9.23;6.15;;;;;;;12.19;55.56;101457.09;5149464;28;20433;-41
2022/05/31 00:46:00;;;;;;;11.07;7.35;;;;;;;12.12;55.47;101445.44;5148556;28;20426;-42
2022/05/31 00:48:49;;;;;;;8.50;6.55;;;;;;;11.98;55.85;101428.19;5144848;28;20435;-42
2022/05/31 00:51:23;;;;;;;9.13;7.18;;;;;;;12.18;55.89;101466.03;5151964;28;20855;-44
2022/05/31 00:54:02;;;;;;;13.23;7.75;;;;;;;12.15;55.88;101461.03;5148142;28;20514;-42
2022/05/31 00:56:35;;;;;;;8.77;6.55;;;;;;;12.14;56.02;101467.28;5159815;28;20417;-42
2022/05/31 00:59:13;;;;;;;9.23;6.67;;;;;;;11.62;56.08;101375.06;5157054;28;20445;-42
2022/05/31 01:01:51;;;;;;;11.15;7.45;;;;;;;12.06;56.15;101456.59;5149623;28;20439;-44
2022/05/31 01:04:38;;;;;;;9.63;6.68;;;;;;;12.09;56.09;101464.25;5151220;28;20429;-43
2022/05/31 01:07:12;;;;;;;8.55;6.13;;;;;;;12.08;56.33;101457.28;5148797;28;25030;-41
2022/05/31 01:09:45;;;;;;;11.80;6.75;;;;;;;12.02;56.51;101456.06;5147970;28;21062;-42
2022/05/31 01:12:18;;;;;;;10.35;6.53;;;;;;;11.98;56.66;101450.22;5147633;28;20424;-42
2022/05/31 01:14:51;;;;;;;11.88;7.13;;;;;;;11.97;56.67;101455.66;5148879;28;20441;-42
2022/05/31 01:17:25;;;;;;;7.43;6.40;;;;;;;11.97;56.83;101448.53;5148802;28;20497;-43
2022/05/31 01:20:03;;;;;;;11.63;7.53;;;;;;;11.69;56.89;101418.50;5148467;28;20503;-44
2022/05/31 01:22:40;;;;;;;8.70;7.73;;;;;;;11.96;56.90;101459.28;5148406;28;20814;-45
2022/05/31 01:25:33;;;;;;;7.90;6.68;;;;;;;11.96;56.90;101454.00;5146388;28;21081;-43
2022/05/31 01:28:26;;;;;;;8.25;6.70;;;;;;;11.93;56.99;101455.09;5146314;28;20426;-42
2022/05/31 01:31:05;;;;;;;8.43;6.13;;;;;;;11.93;57.10;101451.63;5141170;28;20429;-44
2022/05/31 01:33:44;;;;;;;11.13;6.45;;;;;;;11.94;56.96;101456.75;5147650;28;20487;-42
2022/05/31 01:36:23;;;;;;;9.20;6.82;;;;;;;11.88;57.28;101454.69;5147284;28;22044;-41
2022/05/31 01:39:03;;;;;;;7.22;5.85;;;;;;;11.93;57.18;101460.41;5148615;28;20426;-41
2022/05/31 01:41:40;;;;;;;9.63;5.90;;;;;;;11.93;57.18;101455.09;5125622;28;20571;-43
2022/05/31 01:44:18;;;;;;;8.52;5.80;;;;;;;11.91;57.28;101454.41;5145615;28;20883;-42
2022/05/31 01:46:53;;;;;;;7.47;5.65;;;;;;;11.92;57.37;101461.38;5146490;28;20403;-40
2022/05/31 01:49:30;;;;;;;8.18;5.78;;;;;;;11.85;57.41;101449.69;5149717;28;20472;-40
2022/05/31 01:52:05;;;;;;;9.73;6.70;;;;;;;11.93;57.42;101451.63;5144307;28;20501;-43
2022/05/31 01:54:39;;;;;;;9.90;6.97;;;;;;;11.91;57.45;101449.09;5146809;28;20518;-41
2022/05/31 01:57:14;;;;;;;8.88;6.40;;;;;;;11.82;57.66;101434.06;5151326;28;20421;-42
2022/05/31 01:59:52;;;;;;;8.33;6.10;;;;;;;11.92;57.53;101442.84;5148537;28;20945;-43
2022/05/31 02:02:25;;;;;;;11.47;6.30;;;;;;;11.91;57.58;101448.28;5134612;28;20500;-42
2022/05/31 02:04:58;;;;;;;7.50;5.50;;;;;;;11.87;57.69;101433.66;5129131;28;20445;-41
2022/05/31 02:07:33;;;;;;;8.40;5.68;;;;;;;11.49;57.66;101385.13;5146220;28;20423;-41
2022/05/31 02:10:07;;;;;;;6.45;5.50;;;;;;;11.93;57.78;101436.56;5138634;28;20420;-40
2022/05/31 02:12:39;;;;;;;8.93;5.93;;;;;;;11.97;57.70;101442.41;5146351;28;20505;-41
2022/05/31 02:15:12;;;;;;;7.78;5.18;;;;;;;11.98;57.78;101438.78;5147239;28;20862;-42
2022/05/31 02:17:44;;;;;;;7.30;5.38;;;;;;;11.95;57.78;101434.63;5146372;28;20541;-44
2022/05/31 02:20:17;;;;;;;7.63;5.28;;;;;;;12.02;57.84;101440.19;5146902;28;20414;-41
2022/05/31 02:22:50;;;;;;;9.25;5.50;;;;;;;11.99;57.96;101436.00;5146827;28;20395;-42
2022/05/31 02:25:23;;;;;;;8.73;5.07;;;;;;;11.95;57.88;101434.63;5148549;28;20516;-43
2022/05/31 02:27:55;;;;;;;8.53;5.70;;;;;;;12.02;57.82;101437.53;5151701;28;20925;-42
2022/05/31 02:30:28;;;;;;;8.82;5.00;;;;;;;12.00;58.09;101442.94;5140843;28;20425;-46
2022/05/31 02:33:01;;;;;;;9.98;5.32;;;;;;;11.95;58.08;101434.63;5146252;28;20430;-42
2022/05/31 02:35:33;;;;;;;6.18;4.53;;;;;;;11.74;58.02;101400.38;5156968;28;20426;-41
2022/05/31 02:38:07;;;;;;;7.80;4.55;;;;;;;12.02;58.01;101431.41;5146966;28;20417;-43
2022/05/31 02:40:40;;;;;;;8.35;5.50;;;;;;;11.98;58.02;101437.00;5148788;28;20492;-42
2022/05/31 02:43:12;;;;;;;8.52;5.30;;;;;;;11.97;58.05;101435.28;5147650;28;20881;-41
2022/05/31 02:45:45;;;;;;;8.40;5.25;;;;;;;11.94;58.18;101434.75;5143313;28;20508;-41
2022/05/31 02:48:18;;;;;;;7.95;5.50;;;;;;;11.90;57.97;101428.09;5146947;28;20422;-44
2022/05/31 02:50:51;;;;;;;7.82;4.97;;;;;;;11.87;58.09;101442.44;5147421;28;20493;-41
2022/05/31 02:53:24;;;;;;;8.40;5.75;;;;;;;11.86;58.20;101438.13;5147181;28;20509;-42
2022/05/31 02:55:57;;;;;;;9.80;5.93;;;;;;;11.76;58.13;101414.28;5144247;28;20498;-40
2022/05/31 02:58:29;;;;;;;12.07;6.13;;;;;;;11.77;58.15;101431.03;5142687;28;20883;-41
2022/05/31 03:01:03;;;;;;;12.15;6.85;;;;;;;11.81;58.28;101445.63;5137745;28;20994;-41
2022/05/31 03:03:35;;;;;;;10.07;6.50;;;;;;;11.69;58.09;101415.00;5147221;28;20915;-40
2022/05/31 03:06:08;;;;;;;8.70;5.88;;;;;;;11.78;58.11;101432.69;5145622;28;20516;-41
2022/05/31 03:08:42;;;;;;;9.73;6.28;;;;;;;11.73;58.40;101414.56;5146380;28;20418;-41
2022/05/31 03:11:18;;;;;;;9.20;6.15;;;;;;;11.76;58.18;101429.34;5146428;28;20434;-47
2022/05/31 03:13:54;;;;;;;7.68;5.25;;;;;;;11.60;58.29;101418.50;5146778;28;20422;-41
2022/05/31 03:16:27;;;;;;;12.40;6.55;;;;;;;11.74;58.44;101428.66;5147762;28;20422;-43
2022/05/31 03:19:03;;;;;;;6.88;5.53;;;;;;;11.66;58.27;101436.47;5144071;28;20947;-41
2022/05/31 03:21:40;;;;;;;9.43;5.97;;;;;;;11.61;58.51;101414.88;5151150;28;20462;-41
2022/05/31 03:24:21;;;;;;;7.65;5.45;;;;;;;11.69;58.32;101429.06;5145823;28;20421;-47
2022/05/31 03:26:57;;;;;;;10.43;6.38;;;;;;;11.67;58.40;101424.91;5149049;28;20450;-41
2022/05/31 03:29:29;;;;;;;7.28;6.22;;;;;;;11.37;58.57;101375.69;5148616;28;20436;-43
2022/05/31 03:32:02;;;;;;;8.25;5.93;;;;;;;11.55;58.48;101413.63;5148018;28;20839;-42
2022/05/31 03:34:36;;;;;;;11.15;6.63;;;;;;;11.60;58.61;101414.06;5159427;28;20742;-42
2022/05/31 03:37:08;;;;;;;9.15;6.10;;;;;;;11.61;58.76;101423.66;5160050;28;20841;-43
2022/05/31 03:39:42;;;;;;;7.55;6.30;;;;;;;11.61;58.56;101420.19;5150537;28;20844;-43
2022/05/31 03:42:14;;;;;;;10.80;5.75;;;;;;;11.57;58.64;101408.22;5151009;28;20441;-42
2022/05/31 03:44:47;;;;;;;9.85;5.80;;;;;;;11.62;58.64;101414.75;5150422;28;20505;-41
2022/05/31 03:47:19;;;;;;;8.77;5.60;;;;;;;11.64;58.63;101414.59;5146699;28;20994;-41
2022/05/31 03:49:52;;;;;;;9.23;7.25;;;;;;;11.66;58.65;101410.00;5149730;28;20953;-41
2022/05/31 03:52:24;;;;;;;10.37;6.67;;;;;;;11.58;58.80;101399.28;5156778;28;20770;-41
2022/05/31 03:54:58;;;;;;;9.18;5.75;;;;;;;11.70;58.54;101414.84;5149936;28;20778;-41
2022/05/31 03:57:31;;;;;;;9.65;6.13;;;;;;;11.70;58.62;101409.56;5146273;28;20430;-43
2022/05/31 04:00:03;;;;;;;10.40;7.03;;;;;;;11.70;58.67;101408.75;5152008;28;20414;-42
2022/05/31 04:02:36;;;;;;;11.63;6.10;;;;;;;11.79;58.64;101410.53;5149301;28;20427;-41
2022/05/31 04:05:11;;;;;;;11.85;6.65;;;;;;;11.81;58.95;101411.22;5149535;28;20490;-44
2022/05/31 04:07:44;;;;;;;8.75;5.57;;;;;;;11.84;58.74;101410.94;5154472;28;20413;-42
2022/05/31 04:10:18;;;;;;;7.88;5.65;;;;;;;11.86;58.72;101411.66;5133729;28;20513;-42
2022/05/31 04:12:50;;;;;;;7.57;5.60;;;;;;;11.87;58.74;101410.69;5149938;28;20440;-42
2022/05/31 04:15:23;;;;;;;10.05;5.30;;;;;;;11.89;58.73;101408.75;5150278;28;20824;-43
2022/05/31 04:17:56;;;;;;;8.55;5.25;;;;;;;11.94;58.69;101406.47;5148341;28;20494;-41
2022/05/31 04:20:29;;;;;;;7.32;6.00;;;;;;;11.99;58.61;101408.69;5147440;28;20413;-44
2022/05/31 04:26:03;;;;;;;9.95;6.20;;;;;;;12.12;58.59;101408.38;5150356;28;20421;-42
2022/05/31 04:28:36;;;;;;;8.77;6.32;;;;;;;12.17;58.63;101406.09;5142190;28;20425;-42
2022/05/31 04:31:09;;;;;;;9.55;7.45;;;;;;;12.28;58.48;101408.56;5156417;28;20438;-43
2022/05/31 04:33:42;;;;;;;12.23;6.10;;;;;;;12.35;58.46;101404.34;5149899;28;20422;-42
2022/05/31 04:36:19;;;;;;;10.52;6.63;;;;;;;11.90;58.44;101315.09;5150431;28;20551;-42
2022/05/31 04:38:52;;;;;;;12.35;7.47;;;;;;;12.55;58.45;101405.06;5148665;28;20463;-42
2022/05/31 04:41:28;;;;;;;12.25;8.07;;;;;;;12.64;58.32;101403.34;5146683;28;20432;-42
2022/05/31 04:44:04;;;;;;;10.93;7.18;;;;;;;12.80;58.29;101408.00;5142752;28;20486;-41
2022/05/31 04:46:37;;;;;;;13.93;7.10;;;;;;;12.92;57.96;101398.84;5148826;28;21060;-42
2022/05/31 04:49:09;;;;;;;13.30;8.57;;;;;;;13.06;58.18;101392.97;5147781;28;20981;-42
2022/05/31 04:51:43;;;;;;;12.38;7.85;;;;;;;13.18;58.12;101396.22;5149276;28;20514;-43
2022/05/31 04:54:17;;;;;;;11.15;7.13;;;;;;;13.28;58.03;101390.88;5147488;28;20827;-42
2022/05/31 04:56:52;;;;;;;11.63;7.68;;;;;;;13.45;57.87;101402.44;5134042;28;20413;-43
2022/05/31 04:59:25;;;;;;;14.80;7.10;;;;;;;13.57;57.64;101395.91;5147499;28;20422;-43
2022/05/31 05:01:57;;;;;;;13.85;7.28;;;;;;;13.59;57.56;101367.38;5147847;28;20424;-42
2022/05/31 05:04:30;;;;;;;13.32;7.38;;;;;;;13.80;57.62;101386.41;5137470;28;20517;-42
2022/05/31 05:07:02;;;;;;;13.98;7.10;;;;;;;14.03;57.37;101397.34;5150461;28;20497;-42
2022/05/31 05:09:35;;;;;;;11.43;6.93;;;;;;;14.17;57.30;101397.72;5137469;28;20429;-42
2022/05/31 05:12:09;;;;;;;9.03;6.17;;;;;;;14.38;57.06;101392.00;5147817;28;20430;-42
2022/05/31 05:14:42;;;;;;;15.25;7.70;;;;;;;14.59;56.97;101387.09;5146882;28;20458;-42
2022/05/31 05:17:14;;;;;;;9.13;6.38;;;;;;;14.87;56.62;101389.47;5149122;28;20456;-43
2022/05/31 05:19:47;;;;;;;9.90;6.95;;;;;;;15.05;56.38;101384.84;5150790;28;20477;-41
2022/05/31 05:22:20;;;;;;;12.77;6.00;;;;;;;15.35;56.38;101387.81;5164962;28;20508;-42
2022/05/31 05:24:52;;;;;;;10.00;5.85;;;;;;;15.59;56.07;101384.28;5138781;28;20451;-43
2022/05/31 05:27:26;;;;;;;7.53;4.82;;;;;;;15.84;55.80;101387.75;5149084;28;20418;-44
2022/05/31 05:33:03;;;;;;;11.27;4.88;;;;;;;16.43;54.78;101376.69;5050784;28;20424;-45
2022/05/31 05:35:36;;;;;;;8.57;4.93;;;;;;;16.59;54.59;101385.41;5059002;29;20435;-43
2022/05/31 05:38:08;;;;;;;8.98;4.13;;;;;;;16.95;54.16;101371.56;5102670;28;20496;-45
2022/05/31 05:40:40;;;;;;;8.02;3.95;;;;;;;17.70;53.46;101370.69;5157262;28;20796;-44
2022/05/31 05:43:14;;;;;;;6.82;4.00;;;;;;;18.51;52.40;101380.59;5144073;28;20430;-47
2022/05/31 05:45:47;;;;;;;5.97;4.05;;;;;;;18.79;51.77;101370.81;5144445;28;20452;-49
2022/05/31 05:48:19;;;;;;;7.25;3.67;;;;;;;19.13;51.18;101378.13;5152730;28;20441;-44
2022/05/31 05:50:52;;;;;;;4.85;3.50;;;;;;;19.40;50.63;101366.81;5145586;28;20406;-44
2022/05/31 05:53:24;;;;;;;12.98;4.10;;;;;;;20.04;49.79;101377.34;5151274;28;20504;-46
2022/05/31 05:55:56;;;;;;;6.50;3.42;;;;;;;20.24;49.39;101377.41;5156733;28;20876;-45
2022/05/31 05:58:30;;;;;;;7.78;3.47;;;;;;;20.36;48.94;101372.31;5152297;28;20756;-48
2022/05/31 06:01:04;;;;;;;11.00;3.87;;;;;;;20.43;48.62;101386.56;5157279;28;20418;-48
2022/05/31 06:03:41;;;;;;;6.32;3.60;;;;;;;20.33;48.22;101373.53;5155360;28;20551;-47
2022/05/31 06:06:15;;;;;;;7.03;4.03;;;;;;;20.41;48.24;101385.97;5147051;28;20459;-49
2022/05/31 06:08:51;;;;;;;8.10;3.17;;;;;;;20.29;47.87;101379.50;5135698;28;20452;-46
2022/05/31 06:11:28;;;;;;;6.40;4.10;;;;;;;20.31;47.54;101380.13;5163990;28;20420;-45
2022/05/31 06:14:08;;;;;;;12.63;4.47;;;;;;;20.06;47.24;101348.47;5141232;28;20506;-46
2022/05/31 06:16:50;;;;;;;9.52;5.03;;;;;;;20.11;47.10;101370.16;5154490;28;20431;-46
2022/05/31 06:19:28;;;;;;;6.07;4.10;;;;;;;20.51;46.72;101372.97;5148316;28;20566;-46
2022/05/31 06:22:02;;;;;;;9.70;4.43;;;;;;;21.30;45.79;101374.09;5162663;28;20455;-46
2022/05/31 06:24:39;;;;;;;9.40;5.45;;;;;;;21.58;44.86;101296.78;5164256;28;20458;-50
2022/05/31 06:27:11;;;;;;;9.80;5.45;;;;;;;23.01;43.99;101376.41;5151235;28;20561;-47
2022/05/31 06:29:45;;;;;;;7.25;4.80;;;;;;;23.83;42.86;101363.63;5160021;28;20457;-46
2022/05/31 06:32:17;;;;;;;9.43;4.70;;;;;;;24.46;41.93;101340.00;5148762;28;20508;-47
2022/05/31 06:34:50;;;;;;;7.85;4.70;;;;;;;25.03;41.29;101356.59;5160630;28;20665;-47
2022/05/31 06:37:28;;;;;;;8.90;4.80;;;;;;;25.11;41.03;101361.63;5163123;28;20459;-45
2022/05/31 06:40:04;;;;;;;8.50;5.10;;;;;;;25.38;40.71;101369.34;5147597;28;20495;-50
2022/05/31 06:42:37;;;;;;;10.60;4.63;;;;;;;25.99;39.93;101359.88;5154076;28;20424;-49
2022/05/31 06:45:33;;;;;;;7.03;4.40;;;;;;;26.73;39.04;101369.91;5145409;28;20480;-48
2022/05/31 06:48:06;;;;;;;11.38;4.18;;;;;;;27.44;38.23;101370.25;5141186;28;20840;-50
2022/05/31 06:50:39;;;;;;;10.02;4.03;;;;;;;28.16;37.73;101372.06;5143528;28;20754;-50
2022/05/31 06:59:02;;;;;;;8.45;2.72;;;;;;;28.12;36.79;101355.44;5124463;28;20451;-46
2022/05/31 07:01:37;;;;;;;4.43;2.80;;;;;;;27.62;36.94;101333.88;5156050;28;20496;-47
2022/05/31 07:04:12;;;;;;;6.53;2.83;;;;;;;27.84;36.64;101359.16;5149491;28;20422;-46
2022/05/31 07:06:44;;;;;;;9.65;2.75;;;;;;;28.02;36.16;101355.31;5145274;28;20658;-49
2022/05/31 07:09:17;;;;;;;8.55;3.08;;;;;;;27.89;36.24;101356.53;5151210;28;20429;-46
2022/05/31 07:11:50;;;;;;;8.63;2.60;;;;;;;27.96;35.88;101345.47;5154462;28;20465;-47
2022/05/31 07:14:23;;;;;;;7.38;2.90;;;;;;;27.91;35.72;101348.97;5152373;28;20418;-49
2022/05/31 07:16:57;;;;;;;8.50;2.55;;;;;;;27.72;35.62;101344.91;5157604;28;20422;-51
2022/05/31 07:19:29;;;;;;;7.35;2.65;;;;;;;27.34;35.68;101355.47;5128327;28;20440;-47
2022/05/31 07:22:02;;;;;;;8.90;2.50;;;;;;;26.91;35.87;101356.13;5137227;28;20496;-46
2022/05/31 07:24:35;;;;;;;5.70;2.40;;;;;;;26.73;35.91;101359.09;5150900;28;20418;-49
2022/05/31 07:27:07;;;;;;;7.47;2.30;;;;;;;26.89;35.47;101358.28;5153911;28;20467;-45
2022/05/31 07:29:40;;;;;;;7.03;2.80;;;;;;;26.88;35.45;101356.63;5154999;28;20492;-45
2022/05/31 07:32:14;;;;;;;8.10;2.75;;;;;;;26.78;35.29;101356.47;5160150;28;20535;-50
2022/05/31 07:34:46;;;;;;;7.18;3.08;;;;;;;26.88;35.02;101359.34;5170297;28;20421;-49
2022/05/31 07:37:19;;;;;;;6.47;3.22;;;;;;;26.90;34.89;101354.50;5156726;28;20501;-47
2022/05/31 07:39:52;;;;;;;7.15;2.42;;;;;;;26.85;34.86;101355.25;5161349;28;20412;-45
2022/05/31 07:42:24;;;;;;;7.57;2.60;;;;;;;26.84;34.73;101360.91;5164594;28;20805;-48
2022/05/31 07:44:58;;;;;;;7.35;3.53;;;;;;;26.65;34.67;101335.94;5151819;28;20557;-52
2022/05/31 07:47:32;;;;;;;11.17;2.20;;;;;;;26.63;34.65;101355.16;5152482;28;20409;-49
2022/05/31 07:50:06;;;;;;;8.95;2.20;;;;;;;26.53;34.46;101352.25;5161952;28;20537;-52
2022/05/31 07:52:38;;;;;;;4.03;2.03;;;;;;;26.29;34.33;101348.78;5148346;28;20505;-46
2022/05/31 07:55:11;;;;;;;6.22;2.83;;;;;;;25.74;33.92;101328.47;5150471;28;20759;-45
2022/05/31 08:00:34;;;;;;;7.77;4.20;;;;;;;24.59;34.31;101334.44;5124788;28;20501;-47
2022/05/31 08:03:08;;;;;;;10.50;5.07;;;;;;;24.38;34.45;101344.66;5147142;28;20417;-48
2022/05/31 08:05:41;;;;;;;9.75;4.55;;;;;;;24.36;34.10;101341.34;5151200;28;21056;-46
2022/05/31 08:08:14;;;;;;;10.05;3.72;;;;;;;24.16;34.16;101351.63;5151535;28;20427;-47
2022/05/31 08:10:48;;;;;;;9.48;4.00;;;;;;;24.25;33.88;101339.44;5149088;28;20415;-47
2022/05/31 08:13:21;;;;;;;8.77;3.80;;;;;;;24.39;33.75;101346.28;5147418;28;20760;-48
2022/05/31 08:15:53;;;;;;;10.98;4.25;;;;;;;24.54;33.68;101350.50;5150567;28;20877;-48
2022/05/31 08:18:27;;;;;;;9.73;3.30;;;;;;;24.75;33.39;101344.56;5149393;28;20795;-49
2022/05/31 08:21:05;;;;;;;10.85;3.35;;;;;;;25.20;33.21;101346.75;5145617;28;20434;-48
2022/05/31 08:23:39;;;;;;;13.02;3.22;;;;;;;25.57;32.80;101311.34;5145412;28;20975;-47
2022/05/31 08:26:12;;;;;;;6.18;2.80;;;;;;;26.14;32.45;101335.00;5146338;28;20509;-48
2022/05/31 08:28:44;;;;;;;7.63;3.03;;;;;;;26.35;32.43;101334.28;5152380;28;20851;-48
2022/05/31 08:31:22;;;;;;;7.80;2.67;;;;;;;26.15;32.51;101340.16;5149292;28;20512;-47
2022/05/31 08:33:56;;;;;;;10.02;3.92;;;;;;;25.52;32.80;101311.25;5162071;28;20417;-47
2022/05/31 08:36:28;;;;;;;10.88;3.58;;;;;;;25.29;33.11;101304.78;5155067;28;20493;-52
2022/05/31 08:39:02;;;;;;;7.40;3.28;;;;;;;25.39;33.14;101327.69;5123422;28;20425;-49
2022/05/31 08:41:45;;;;;;;8.93;3.53;;;;;;;25.30;33.06;101328.09;5142544;28;20475;-51
2022/05/31 08:44:38;;;;;;;7.53;2.37;;;;;;;25.02;33.18;101333.31;5151259;28;20507;-51
2022/05/31 08:47:24;;;;;;;9.68;2.90;;;;;;;24.84;33.33;101332.38;5144328;28;20793;-47
2022/05/31 08:53:17;;;;;;;5.78;2.40;;;;;;;24.82;33.22;101323.66;5158083;28;20400;-50
2022/05/31 08:58:50;;;;;;;12.60;3.03;;;;;;;24.41;33.48;101334.47;5153533;28;20906;-49
2022/05/31 09:01:28;;;;;;;10.33;3.90;;;;;;;24.30;33.27;101334.16;5144613;28;20494;-47
2022/05/31 09:04:14;;;;;;;7.43;3.03;;;;;;;23.98;33.35;101311.97;5148674;28;20413;-53
2022/05/31 09:06:51;;;;;;;9.82;3.28;;;;;;;23.81;33.06;101298.28;5132710;28;20441;-48
2022/05/31 09:09:27;;;;;;;6.63;3.15;;;;;;;24.15;32.84;101328.34;5142377;28;20426;-50
2022/05/31 09:12:06;;;;;;;8.60;3.50;;;;;;;24.20;32.65;101325.81;5151606;28;20467;-50
2022/05/31 09:14:52;;;;;;;6.05;3.13;;;;;;;24.07;32.30;101334.09;5147717;28;20445;-48
2022/05/31 09:17:30;;;;;;;10.25;3.35;;;;;;;23.82;32.52;101323.41;5150277;28;20450;-51
2022/05/31 09:20:06;;;;;;;9.53;3.03;;;;;;;23.68;32.09;101279.53;5135482;28;20488;-47
2022/05/31 09:22:45;;;;;;;6.78;3.10;;;;;;;24.04;32.08;101310.25;5148985;28;20986;-46
2022/05/31 09:25:17;;;;;;;11.30;2.80;;;;;;;24.08;31.70;101322.22;5150715;28;20511;-49
2022/05/31 09:27:52;;;;;;;8.17;2.60;;;;;;;24.43;31.42;101313.47;5146826;28;20980;-47
2022/05/31 09:30:32;;;;;;;7.38;2.50;;;;;;;24.73;30.95;101308.84;5149500;28;20496;-51
2022/05/31 09:33:16;;;;;;;6.15;2.53;;;;;;;24.91;30.75;101326.03;5164560;28;20951;-49
2022/05/31 09:36:08;;;;;;;7.78;2.72;;;;;;;25.00;30.78;101324.63;5160680;28;20399;-45
2022/05/31 09:38:59;;;;;;;5.93;2.20;;;;;;;25.28;30.07;101322.06;5159570;28;20932;-48
2022/05/31 09:41:38;;;;;;;6.50;2.53;;;;;;;25.05;30.17;101298.56;5129590;28;20431;-46
2022/05/31 09:44:19;;;;;;;7.68;2.00;;;;;;;25.22;30.10;101306.81;5137558;28;20436;-52
2022/05/31 09:47:00;;;;;;;8.93;1.88;;;;;;;25.35;29.69;101305.72;5142525;28;20775;-46
2022/05/31 09:49:37;;;;;;;4.47;2.35;;;;;;;25.47;29.37;101313.84;5140347;28;20421;-47
2022/05/31 09:52:13;;;;;;;3.72;2.10;;;;;;;25.45;29.19;101310.53;5148703;28;20462;-46
2022/05/31 09:58:07;;;;;;;5.85;1.73;;;;;;;25.36;29.32;101307.38;5150902;28;20869;-49
2022/05/31 10:01:00;;;;;;;7.20;2.35;;;;;;;25.10;29.15;101292.44;5145331;28;20462;-51
2022/05/31 10:03:38;;;;;;;5.38;2.28;;;;;;;24.83;29.21;101303.69;5151944;28;20415;-47
2022/05/31 10:06:16;;;;;;;9.00;2.85;;;;;;;24.72;29.14;101307.22;5154353;28;20994;-45
2022/05/31 10:08:51;;;;;;;3.53;1.90;;;;;;;24.30;29.35;101279.38;5149286;28;20388;-44
2022/05/31 10:11:30;;;;;;;5.75;2.20;;;;;;;24.42;29.16;101295.63;5149592;28;20845;-46
2022/05/31 10:14:05;;;;;;;6.45;2.10;;;;;;;24.50;28.99;101298.00;5147314;28;20504;-45
2022/05/31 10:16:42;;;;;;;5.17;2.70;;;;;;;24.47;28.82;101301.19;5133214;28;20423;-47
2022/05/31 10:19:25;;;;;;;4.07;2.20;;;;;;;24.42;28.92;101295.63;5145738;28;20449;-47
2022/05/31 10:22:14;;;;;;;6.37;2.30;;;;;;;24.27;29.01;101291.44;5138583;28;20519;-48
2022/05/31 10:24:46;;;;;;;6.72;2.70;;;;;;;24.07;29.06;101261.22;5144377;28;20596;-47
2022/05/31 10:27:28;;;;;;;8.07;2.40;;;;;;;24.15;29.02;101295.97;5147296;28;24577;-46
2022/05/31 10:30:07;;;;;;;5.75;2.42;;;;;;;24.17;28.87;101291.19;5150105;28;20425;-46
2022/05/31 10:32:47;;;;;;;7.05;2.80;;;;;;;24.03;28.82;101270.81;5149984;28;20791;-45
2022/05/31 10:35:24;;;;;;;7.63;2.77;;;;;;;24.23;28.78;101292.97;5159021;28;20409;-46
2022/05/31 10:38:03;;;;;;;8.13;3.00;;;;;;;24.09;28.77;101291.50;5149016;28;20838;-46
2022/05/31 10:40:45;;;;;;;8.82;2.95;;;;;;;24.07;28.77;101288.22;5145403;28;20420;-47
2022/05/31 10:43:36;;;;;;;8.37;2.73;;;;;;;24.11;28.88;101289.41;5148074;28;20440;-48
2022/05/31 10:46:25;;;;;;;6.75;2.72;;;;;;;24.00;28.74;101299.09;5156655;28;20434;-47
2022/05/31 10:49:03;;;;;;;6.20;2.75;;;;;;;23.37;28.92;101203.16;5147951;28;20475;-47
2022/05/31 10:51:50;;;;;;;4.43;2.67;;;;;;;23.79;28.94;101254.53;5156837;28;20428;-47
2022/05/31 10:55:05;;;;;;;5.88;2.53;;;;;;;24.02;29.02;101288.06;5159923;28;20510;-47
2022/05/31 10:57:57;;;;;;;8.17;3.00;;;;;;;23.87;28.85;101262.31;5137622;28;20545;-47
2022/05/31 11:00:39;;;;;;;6.32;2.80;;;;;;;23.93;28.92;101282.97;5147410;28;20420;-49
2022/05/31 11:03:29;;;;;;;5.75;2.50;;;;;;;23.87;29.27;101289.28;5151388;28;20952;-47
2022/05/31 11:06:18;;;;;;;5.57;2.83;;;;;;;23.64;29.32;101272.97;5122442;28;20799;-46
2022/05/31 11:12:27;;;;;;;4.13;1.92;;;;;;;24.23;28.76;101278.66;5151587;28;20412;-44
2022/05/31 11:15:09;;;;;;;8.90;2.13;;;;;;;24.25;28.83;101284.63;5139333;28;20482;-44
2022/05/31 11:18:35;;;;;;;4.25;2.20;;;;;;;24.15;29.12;101288.69;5151955;28;20421;-48
2022/05/31 11:21:22;;;;;;;4.95;1.98;;;;;;;23.99;29.30;101286.66;5129677;28;20422;-45
2022/05/31 11:24:16;;;;;;;9.68;3.53;;;;;;;23.59;29.42;101267.41;5158429;28;20493;-46
2022/05/31 11:27:04;;;;;;;9.35;4.47;;;;;;;23.42;29.44;101262.63;5140480;28;20774;-48
2022/05/31 11:30:14;;;;;;;9.40;4.80;;;;;;;23.31;30.04;101289.50;5116661;28;20462;-49
2022/05/31 11:33:28;;;;;;;10.38;5.68;;;;;;;23.04;30.26;101278.16;5138201;28;20762;-49
2022/05/31 11:36:18;;;;;;;9.70;4.78;;;;;;;22.98;30.78;101318.41;5139895;28;20439;-52
2022/05/31 11:39:04;;;;;;;11.30;5.60;;;;;;;22.72;31.06;101292.47;5092547;28;20441;-46
2022/05/31 11:41:44;;;;;;;10.17;5.07;;;;;;;22.56;31.42;101299.22;5140825;28;20868;-47
2022/05/31 11:44:45;;;;;;;13.55;5.40;;;;;;;22.46;31.63;101298.88;5156671;28;20435;-48
2022/05/31 11:47:33;;;;;;;10.38;4.95;;;;;;;22.40;31.76;101299.75;5117278;28;20549;-47
2022/05/31 11:50:18;;;;;;;12.02;5.75;;;;;;;22.17;31.97;101294.91;5118640;28;20894;-46
2022/05/31 11:53:16;;;;;;;10.25;5.40;;;;;;;21.93;32.26;101299.16;5139410;28;20502;-47
2022/05/31 11:55:52;;;;;;;13.25;6.22;;;;;;;21.81;32.49;101300.84;5137786;28;20478;-49
2022/05/31 11:58:36;;;;;;;14.68;5.75;;;;;;;21.53;32.51;101276.97;5144451;28;20949;-48
2022/05/31 12:01:16;;;;;;;11.20;5.30;;;;;;;21.50;32.94;101307.78;5153040;28;20480;-47
2022/05/31 12:04:03;;;;;;;13.55;5.55;;;;;;;21.40;33.19;101305.53;5153679;28;20490;-48
2022/05/31 12:06:45;;;;;;;13.10;4.90;;;;;;;21.25;33.03;101285.28;5147714;28;20855;-49
2022/05/31 12:09:20;;;;;;;7.03;4.28;;;;;;;21.33;33.24;101299.28;5164198;28;20433;-49
2022/05/31 12:12:00;;;;;;;10.57;5.28;;;;;;;21.05;33.37;101280.75;5158377;28;20435;-46
2022/05/31 12:14:39;;;;;;;12.95;6.32;;;;;;;20.96;34.14;101300.78;5154524;28;20456;-51
2022/05/31 12:17:11;;;;;;;10.45;5.15;;;;;;;20.77;34.03;101293.56;5162526;28;20817;-48
2022/05/31 12:19:53;;;;;;;8.90;4.78;;;;;;;20.55;34.47;101291.06;5139488;28;20418;-48
2022/05/31 12:22:33;;;;;;;9.60;4.53;;;;;;;20.30;34.62;101296.16;5150337;28;20480;-48
2022/05/31 12:25:11;;;;;;;8.48;4.47;;;;;;;19.80;35.20;101260.72;5164427;28;20511;-50
2022/05/31 12:27:48;;;;;;;7.63;4.53;;;;;;;19.76;35.46;101311.22;5165228;28;20420;-50
2022/05/31 12:30:27;;;;;;;9.33;4.47;;;;;;;19.59;35.61;101299.13;5154274;28;20820;-50
2022/05/31 12:32:59;;;;;;;7.13;3.85;;;;;;;19.64;35.47;101310.13;5144626;28;20478;-51
2022/05/31 12:35:56;;;;;;;7.60;3.95;;;;;;;19.55;35.47;101322.81;5146904;28;20506;-48